sensor_id;sensor_type;location;lat;lon;timestamp;temperature;humidity
53695;DHT22;39588;51.124;7.190;2023-06-14T00:11:38;18.40;52.40
53695;DHT22;39588;51.124;7.190;2023-06-14T00:14:04;18.40;52.40
53695;DHT22;39588;51.124;7.190;2023-06-14T00:16:30;18.40;52.40
53695;DHT22;39588;51.124;7.190;2023-06-14T00:18:55;18.40;52.50
53695;DHT22;39588;51.124;7.190;2023-06-14T00:21:21;18.30;52.20
53695;DHT22;39588;51.124;7.190;2023-06-14T00:26:13;18.30;52.30
53695;DHT22;39588;51.124;7.190;2023-06-14T00:28:38;18.30;52.20
53695;DHT22;39588;51.124;7.190;2023-06-14T00:31:04;18.20;51.90
53695;DHT22;39588;51.124;7.190;2023-06-14T00:33:29;18.20;51.90
53695;DHT22;39588;51.124;7.190;2023-06-14T00:40:47;18.20;52.20
53695;DHT22;39588;51.124;7.190;2023-06-14T00:43:14;18.20;52.40
53695;DHT22;39588;51.124;7.190;2023-06-14T00:50:32;18.10;52.70
53695;DHT22;39588;51.124;7.190;2023-06-14T00:57:56;18.00;52.40
53695;DHT22;39588;51.124;7.190;2023-06-14T01:05:19;17.90;52.70
53695;DHT22;39588;51.124;7.190;2023-06-14T01:13:27;17.80;52.90
53695;DHT22;39588;51.124;7.190;2023-06-14T01:15:55;17.70;52.50
53695;DHT22;39588;51.124;7.190;2023-06-14T01:18:22;17.70;52.40
53695;DHT22;39588;51.124;7.190;2023-06-14T01:20:49;17.70;52.60
53695;DHT22;39588;51.124;7.190;2023-06-14T01:23:19;17.70;52.70
53695;DHT22;39588;51.124;7.190;2023-06-14T01:25:45;17.60;52.70
53695;DHT22;39588;51.124;7.190;2023-06-14T01:28:13;17.60;52.50
53695;DHT22;39588;51.124;7.190;2023-06-14T01:30:41;17.60;52.70
53695;DHT22;39588;51.124;7.190;2023-06-14T01:35:36;17.60;52.60
53695;DHT22;39588;51.124;7.190;2023-06-14T01:38:02;17.50;52.50
53695;DHT22;39588;51.124;7.190;2023-06-14T01:40:29;17.50;52.80
53695;DHT22;39588;51.124;7.190;2023-06-14T01:42:56;17.50;52.50
53695;DHT22;39588;51.124;7.190;2023-06-14T01:47:48;17.40;52.50
53695;DHT22;39588;51.124;7.190;2023-06-14T01:50:14;17.40;52.70
53695;DHT22;39588;51.124;7.190;2023-06-14T01:57:33;17.30;52.40
53695;DHT22;39588;51.124;7.190;2023-06-14T01:59:59;17.30;52.40
53695;DHT22;39588;51.124;7.190;2023-06-14T02:02:24;17.30;53.00
53695;DHT22;39588;51.124;7.190;2023-06-14T02:07:17;17.10;52.30
53695;DHT22;39588;51.124;7.190;2023-06-14T02:09:43;17.10;52.50
53695;DHT22;39588;51.124;7.190;2023-06-14T02:14:36;17.10;52.80
53695;DHT22;39588;51.124;7.190;2023-06-14T02:17:01;17.10;52.50
53695;DHT22;39588;51.124;7.190;2023-06-14T02:19:27;17.10;52.70
53695;DHT22;39588;51.124;7.190;2023-06-14T02:26:45;17.00;53.00
53695;DHT22;39588;51.124;7.190;2023-06-14T02:31:40;16.90;52.70
53695;DHT22;39588;51.124;7.190;2023-06-14T02:36:35;16.80;52.70
53695;DHT22;39588;51.124;7.190;2023-06-14T02:39:07;16.80;52.70
53695;DHT22;39588;51.124;7.190;2023-06-14T02:41:34;16.80;52.90
53695;DHT22;39588;51.124;7.190;2023-06-14T02:44:00;16.80;52.80
53695;DHT22;39588;51.124;7.190;2023-06-14T02:46:26;16.80;53.00
53695;DHT22;39588;51.124;7.190;2023-06-14T02:48:53;16.70;53.30
53695;DHT22;39588;51.124;7.190;2023-06-14T02:51:18;16.70;53.20
53695;DHT22;39588;51.124;7.190;2023-06-14T02:56:10;16.70;53.40
53695;DHT22;39588;51.124;7.190;2023-06-14T02:58:37;16.60;53.20
53695;DHT22;39588;51.124;7.190;2023-06-14T03:01:06;16.70;53.40
53695;DHT22;39588;51.124;7.190;2023-06-14T03:03:33;16.60;53.20
53695;DHT22;39588;51.124;7.190;2023-06-14T03:05:59;16.60;53.40
53695;DHT22;39588;51.124;7.190;2023-06-14T03:08:29;16.60;53.50
53695;DHT22;39588;51.124;7.190;2023-06-14T03:10:55;16.60;53.90
53695;DHT22;39588;51.124;7.190;2023-06-14T03:13:21;16.50;53.70
53695;DHT22;39588;51.124;7.190;2023-06-14T03:15:47;16.50;53.60
53695;DHT22;39588;51.124;7.190;2023-06-14T03:20:41;16.40;53.80
53695;DHT22;39588;51.124;7.190;2023-06-14T03:23:08;16.40;53.70
53695;DHT22;39588;51.124;7.190;2023-06-14T03:25:34;16.40;54.10
53695;DHT22;39588;51.124;7.190;2023-06-14T03:28:04;16.40;54.00
53695;DHT22;39588;51.124;7.190;2023-06-14T03:30:30;16.40;54.30
53695;DHT22;39588;51.124;7.190;2023-06-14T03:32:56;16.30;54.20
53695;DHT22;39588;51.124;7.190;2023-06-14T03:35:23;16.40;54.20
53695;DHT22;39588;51.124;7.190;2023-06-14T03:37:49;16.40;54.70
53695;DHT22;39588;51.124;7.190;2023-06-14T03:40:17;16.40;54.40
53695;DHT22;39588;51.124;7.190;2023-06-14T03:42:43;16.40;54.40
53695;DHT22;39588;51.124;7.190;2023-06-14T03:45:09;16.40;54.60
53695;DHT22;39588;51.124;7.190;2023-06-14T03:47:35;16.30;54.60
53695;DHT22;39588;51.124;7.190;2023-06-14T03:50:04;16.30;54.60
53695;DHT22;39588;51.124;7.190;2023-06-14T03:52:30;16.30;55.00
53695;DHT22;39588;51.124;7.190;2023-06-14T03:54:56;16.40;54.80
53695;DHT22;39588;51.124;7.190;2023-06-14T03:57:23;16.40;54.70
53695;DHT22;39588;51.124;7.190;2023-06-14T03:59:49;16.40;54.80
53695;DHT22;39588;51.124;7.190;2023-06-14T04:02:15;16.40;54.80
53695;DHT22;39588;51.124;7.190;2023-06-14T04:04:44;16.40;55.10
53695;DHT22;39588;51.124;7.190;2023-06-14T04:07:14;16.40;55.20
53695;DHT22;39588;51.124;7.190;2023-06-14T04:09:41;16.40;55.10
53695;DHT22;39588;51.124;7.190;2023-06-14T04:12:07;16.40;55.00
53695;DHT22;39588;51.124;7.190;2023-06-14T04:14:34;16.50;55.10
53695;DHT22;39588;51.124;7.190;2023-06-14T04:17:00;16.50;55.10
53695;DHT22;39588;51.124;7.190;2023-06-14T04:19:26;16.50;55.30
53695;DHT22;39588;51.124;7.190;2023-06-14T04:24:18;16.50;55.40
53695;DHT22;39588;51.124;7.190;2023-06-14T04:26:44;16.50;55.40
53695;DHT22;39588;51.124;7.190;2023-06-14T04:29:11;16.50;55.40
53695;DHT22;39588;51.124;7.190;2023-06-14T04:31:40;16.60;55.30
53695;DHT22;39588;51.124;7.190;2023-06-14T04:34:05;16.60;55.90
53695;DHT22;39588;51.124;7.190;2023-06-14T04:36:35;16.60;55.30
53695;DHT22;39588;51.124;7.190;2023-06-14T04:39:05;16.60;55.00
53695;DHT22;39588;51.124;7.190;2023-06-14T04:43:58;17.20;55.00
53695;DHT22;39588;51.124;7.190;2023-06-14T04:46:27;17.30;54.90
53695;DHT22;39588;51.124;7.190;2023-06-14T04:51:20;17.10;55.00
53695;DHT22;39588;51.124;7.190;2023-06-14T04:56:15;17.00;55.00
53695;DHT22;39588;51.124;7.190;2023-06-14T04:58:42;17.00;55.50
53695;DHT22;39588;51.124;7.190;2023-06-14T05:01:09;17.10;55.20
53695;DHT22;39588;51.124;7.190;2023-06-14T05:03:34;17.20;55.30
53695;DHT22;39588;51.124;7.190;2023-06-14T05:06:00;17.30;55.10
53695;DHT22;39588;51.124;7.190;2023-06-14T05:13:18;17.40;55.20
53695;DHT22;39588;51.124;7.190;2023-06-14T05:18:10;17.60;55.10
53695;DHT22;39588;51.124;7.190;2023-06-14T05:23:02;17.70;55.30
53695;DHT22;39588;51.124;7.190;2023-06-14T05:27:54;17.60;54.90
53695;DHT22;39588;51.124;7.190;2023-06-14T05:30:20;17.80;55.60
53695;DHT22;39588;51.124;7.190;2023-06-14T05:32:46;17.90;54.90
53695;DHT22;39588;51.124;7.190;2023-06-14T05:35:11;17.90;55.00
53695;DHT22;39588;51.124;7.190;2023-06-14T05:37:37;18.00;55.40
53695;DHT22;39588;51.124;7.190;2023-06-14T05:40:04;18.20;55.30
53695;DHT22;39588;51.124;7.190;2023-06-14T05:57:07;18.90;54.10
53695;DHT22;39588;51.124;7.190;2023-06-14T05:59:33;19.00;53.90
53695;DHT22;39588;51.124;7.190;2023-06-14T06:01:59;19.30;55.10
53695;DHT22;39588;51.124;7.190;2023-06-14T06:04:25;19.40;54.10
53695;DHT22;39588;51.124;7.190;2023-06-14T06:06:51;19.50;54.30
53695;DHT22;39588;51.124;7.190;2023-06-14T06:11:42;19.60;53.10
53695;DHT22;39588;51.124;7.190;2023-06-14T06:19:00;19.80;53.10
53695;DHT22;39588;51.124;7.190;2023-06-14T06:26:22;19.90;52.90
53695;DHT22;39588;51.124;7.190;2023-06-14T06:28:47;20.10;53.10
53695;DHT22;39588;51.124;7.190;2023-06-14T06:31:13;20.20;52.60
53695;DHT22;39588;51.124;7.190;2023-06-14T06:33:39;20.40;52.80
53695;DHT22;39588;51.124;7.190;2023-06-14T06:36:05;20.50;52.50
53695;DHT22;39588;51.124;7.190;2023-06-14T06:57:59;21.00;50.40
53695;DHT22;39588;51.124;7.190;2023-06-14T07:05:20;21.10;51.10
53695;DHT22;39588;51.124;7.190;2023-06-14T07:15:06;21.40;50.10
53695;DHT22;39588;51.124;7.190;2023-06-14T07:17:33;21.40;49.70
53695;DHT22;39588;51.124;7.190;2023-06-14T07:19:59;21.70;51.10
53695;DHT22;39588;51.124;7.190;2023-06-14T07:46:46;22.10;46.90
53695;DHT22;39588;51.124;7.190;2023-06-14T07:54:06;22.40;47.10
53695;DHT22;39588;51.124;7.190;2023-06-14T07:56:34;22.60;47.20
53695;DHT22;39588;51.124;7.190;2023-06-14T08:01:27;22.50;46.20
53695;DHT22;39588;51.124;7.190;2023-06-14T08:11:12;22.90;46.20
53695;DHT22;39588;51.124;7.190;2023-06-14T08:18:30;22.90;46.30
53695;DHT22;39588;51.124;7.190;2023-06-14T08:23:23;22.30;46.10
53695;DHT22;39588;51.124;7.190;2023-06-14T08:28:15;22.60;47.00
53695;DHT22;39588;51.124;7.190;2023-06-14T08:30:42;22.70;46.50
53695;DHT22;39588;51.124;7.190;2023-06-14T08:40:30;23.20;46.10
53695;DHT22;39588;51.124;7.190;2023-06-14T08:42:56;23.10;46.40
53695;DHT22;39588;51.124;7.190;2023-06-14T08:45:23;22.80;47.70
53695;DHT22;39588;51.124;7.190;2023-06-14T08:47:52;22.80;48.10
53695;DHT22;39588;51.124;7.190;2023-06-14T08:50:24;22.90;48.60
53695;DHT22;39588;51.124;7.190;2023-06-14T08:52:54;23.20;49.00
53695;DHT22;39588;51.124;7.190;2023-06-14T08:55:23;23.60;48.00
53695;DHT22;39588;51.124;7.190;2023-06-14T08:57:51;23.60;47.90
53695;DHT22;39588;51.124;7.190;2023-06-14T09:00:19;23.70;48.30
53695;DHT22;39588;51.124;7.190;2023-06-14T09:02:46;23.60;48.00
53695;DHT22;39588;51.124;7.190;2023-06-14T09:05:15;23.70;47.90
53695;DHT22;39588;51.124;7.190;2023-06-14T09:10:11;23.50;47.00
53695;DHT22;39588;51.124;7.190;2023-06-14T09:20:02;24.00;47.80
53695;DHT22;39588;51.124;7.190;2023-06-14T09:22:31;23.90;47.60
53695;DHT22;39588;51.124;7.190;2023-06-14T09:24:56;23.90;48.30
53695;DHT22;39588;51.124;7.190;2023-06-14T09:27:22;24.00;48.60
53695;DHT22;39588;51.124;7.190;2023-06-14T09:44:25;23.90;50.10
53695;DHT22;39588;51.124;7.190;2023-06-14T09:46:55;23.90;49.20
53695;DHT22;39588;51.124;7.190;2023-06-14T09:49:21;24.00;50.20
53695;DHT22;39588;51.124;7.190;2023-06-14T09:56:47;23.50;50.30
53695;DHT22;39588;51.124;7.190;2023-06-14T09:59:18;23.50;51.20
53695;DHT22;39588;51.124;7.190;2023-06-14T10:06:40;23.80;49.90
53695;DHT22;39588;51.124;7.190;2023-06-14T10:09:08;23.80;50.30
53695;DHT22;39588;51.124;7.190;2023-06-14T10:11:35;23.60;49.30
53695;DHT22;39588;51.124;7.190;2023-06-14T10:14:02;23.50;49.50
53695;DHT22;39588;51.124;7.190;2023-06-14T10:16:55;23.50;48.00
53695;DHT22;39588;51.124;7.190;2023-06-14T10:22:19;23.70;48.30
53695;DHT22;39588;51.124;7.190;2023-06-14T10:24:48;23.70;47.70
53695;DHT22;39588;51.124;7.190;2023-06-14T10:32:24;24.20;48.20
53695;DHT22;39588;51.124;7.190;2023-06-14T10:35:01;24.30;48.30
53695;DHT22;39588;51.124;7.190;2023-06-14T10:37:27;24.30;47.10
53695;DHT22;39588;51.124;7.190;2023-06-14T10:42:19;24.10;48.20
53695;DHT22;39588;51.124;7.190;2023-06-14T10:44:53;24.30;48.10
53695;DHT22;39588;51.124;7.190;2023-06-14T10:47:32;24.10;47.90
53695;DHT22;39588;51.124;7.190;2023-06-14T10:52:34;24.00;47.20
53695;DHT22;39588;51.124;7.190;2023-06-14T10:57:27;23.70;47.00
53695;DHT22;39588;51.124;7.190;2023-06-14T11:02:27;23.50;47.00
53695;DHT22;39588;51.124;7.190;2023-06-14T11:04:56;23.70;47.80
53695;DHT22;39588;51.124;7.190;2023-06-14T11:12:48;24.00;45.90
53695;DHT22;39588;51.124;7.190;2023-06-14T11:15:14;24.00;47.60
53695;DHT22;39588;51.124;7.190;2023-06-14T11:22:42;23.90;47.50
53695;DHT22;39588;51.124;7.190;2023-06-14T11:25:14;23.70;46.60
53695;DHT22;39588;51.124;7.190;2023-06-14T11:27:42;23.30;46.90
53695;DHT22;39588;51.124;7.190;2023-06-14T11:30:08;23.20;47.80
53695;DHT22;39588;51.124;7.190;2023-06-14T11:32:35;23.30;47.20
53695;DHT22;39588;51.124;7.190;2023-06-14T11:35:02;23.50;47.90
53695;DHT22;39588;51.124;7.190;2023-06-14T11:42:27;23.80;48.40
53695;DHT22;39588;51.124;7.190;2023-06-14T11:52:14;23.50;46.90
53695;DHT22;39588;51.124;7.190;2023-06-14T11:57:07;24.30;47.50
53695;DHT22;39588;51.124;7.190;2023-06-14T11:59:44;24.10;47.90
53695;DHT22;39588;51.124;7.190;2023-06-14T12:02:13;24.00;46.90
53695;DHT22;39588;51.124;7.190;2023-06-14T12:04:41;24.00;48.70
53695;DHT22;39588;51.124;7.190;2023-06-14T12:07:14;24.10;46.30
53695;DHT22;39588;51.124;7.190;2023-06-14T12:12:23;24.10;46.70
53695;DHT22;39588;51.124;7.190;2023-06-14T12:14:51;24.30;45.90
53695;DHT22;39588;51.124;7.190;2023-06-14T12:17:17;24.50;46.20
53695;DHT22;39588;51.124;7.190;2023-06-14T12:19:44;24.70;47.20
53695;DHT22;39588;51.124;7.190;2023-06-14T12:22:10;24.80;46.60
53695;DHT22;39588;51.124;7.190;2023-06-14T12:24:37;24.70;46.40
53695;DHT22;39588;51.124;7.190;2023-06-14T12:27:03;24.80;47.50
53695;DHT22;39588;51.124;7.190;2023-06-14T12:29:30;24.90;47.90
53695;DHT22;39588;51.124;7.190;2023-06-14T12:31:56;24.90;46.10
53695;DHT22;39588;51.124;7.190;2023-06-14T12:34:26;24.90;46.60
53695;DHT22;39588;51.124;7.190;2023-06-14T12:36:55;24.90;46.20
53695;DHT22;39588;51.124;7.190;2023-06-14T12:39:21;24.90;47.20
53695;DHT22;39588;51.124;7.190;2023-06-14T12:44:14;24.40;45.30
53695;DHT22;39588;51.124;7.190;2023-06-14T12:46:41;24.10;46.30
53695;DHT22;39588;51.124;7.190;2023-06-14T12:49:09;24.10;46.20
53695;DHT22;39588;51.124;7.190;2023-06-14T12:54:01;24.20;46.70
53695;DHT22;39588;51.124;7.190;2023-06-14T13:01:19;24.30;46.40
53695;DHT22;39588;51.124;7.190;2023-06-14T13:03:46;24.30;46.10
53695;DHT22;39588;51.124;7.190;2023-06-14T13:15:56;24.30;45.70
53695;DHT22;39588;51.124;7.190;2023-06-14T13:18:22;24.40;45.40
53695;DHT22;39588;51.124;7.190;2023-06-14T13:23:16;24.20;45.80
53695;DHT22;39588;51.124;7.190;2023-06-14T13:28:08;24.50;46.20
53695;DHT22;39588;51.124;7.190;2023-06-14T13:30:34;24.50;45.20
53695;DHT22;39588;51.124;7.190;2023-06-14T13:33:00;24.40;43.60
53695;DHT22;39588;51.124;7.190;2023-06-14T13:37:52;24.00;45.40
53695;DHT22;39588;51.124;7.190;2023-06-14T13:45:11;24.00;45.40
53695;DHT22;39588;51.124;7.190;2023-06-14T13:47:37;24.20;45.40
53695;DHT22;39588;51.124;7.190;2023-06-14T13:50:04;24.20;45.60
53695;DHT22;39588;51.124;7.190;2023-06-14T13:54:56;24.30;45.10
53695;DHT22;39588;51.124;7.190;2023-06-14T14:04:41;24.50;46.40
53695;DHT22;39588;51.124;7.190;2023-06-14T14:07:07;24.50;47.10
53695;DHT22;39588;51.124;7.190;2023-06-14T14:09:34;24.60;45.90
53695;DHT22;39588;51.124;7.190;2023-06-14T14:12:03;24.70;46.50
53695;DHT22;39588;51.124;7.190;2023-06-14T14:14:31;24.80;45.50
53695;DHT22;39588;51.124;7.190;2023-06-14T14:16:57;24.90;46.10
53695;DHT22;39588;51.124;7.190;2023-06-14T14:26:42;24.80;46.10
53695;DHT22;39588;51.124;7.190;2023-06-14T14:29:08;24.80;45.20
53695;DHT22;39588;51.124;7.190;2023-06-14T14:34:02;24.70;46.80
53695;DHT22;39588;51.124;7.190;2023-06-14T14:36:28;24.90;45.60
53695;DHT22;39588;51.124;7.190;2023-06-14T14:38:53;24.90;46.00
53695;DHT22;39588;51.124;7.190;2023-06-14T14:53:31;22.90;46.00
53695;DHT22;39588;51.124;7.190;2023-06-14T14:55:56;23.00;47.00
53695;DHT22;39588;51.124;7.190;2023-06-14T14:58:22;23.40;47.00
53695;DHT22;39588;51.124;7.190;2023-06-14T15:03:14;23.90;46.30
53695;DHT22;39588;51.124;7.190;2023-06-14T15:08:06;24.60;47.20
53695;DHT22;39588;51.124;7.190;2023-06-14T15:10:41;24.70;46.50
53695;DHT22;39588;51.124;7.190;2023-06-14T15:13:10;24.70;45.70
53695;DHT22;39588;51.124;7.190;2023-06-14T15:15:36;24.40;45.40
53695;DHT22;39588;51.124;7.190;2023-06-14T15:18:02;24.10;45.60
53695;DHT22;39588;51.124;7.190;2023-06-14T15:20:28;24.10;46.20
53695;DHT22;39588;51.124;7.190;2023-06-14T15:22:54;24.10;45.50
53695;DHT22;39588;51.124;7.190;2023-06-14T15:25:25;24.10;46.30
53695;DHT22;39588;51.124;7.190;2023-06-14T15:40:01;24.30;45.80
53695;DHT22;39588;51.124;7.190;2023-06-14T15:42:26;24.30;45.70
53695;DHT22;39588;51.124;7.190;2023-06-14T15:44:52;24.30;45.90
53695;DHT22;39588;51.124;7.190;2023-06-14T15:47:18;24.30;45.40
53695;DHT22;39588;51.124;7.190;2023-06-14T15:57:02;25.20;46.20
53695;DHT22;39588;51.124;7.190;2023-06-14T16:01:54;24.60;46.20
53695;DHT22;39588;51.124;7.190;2023-06-14T16:04:20;24.90;45.90
53695;DHT22;39588;51.124;7.190;2023-06-14T16:06:45;25.20;45.50
53695;DHT22;39588;51.124;7.190;2023-06-14T16:11:37;25.90;44.30
53695;DHT22;39588;51.124;7.190;2023-06-14T16:14:02;25.80;44.70
53695;DHT22;39588;51.124;7.190;2023-06-14T16:16:29;25.40;44.50
53695;DHT22;39588;51.124;7.190;2023-06-14T16:18:55;24.90;44.10
53695;DHT22;39588;51.124;7.190;2023-06-14T16:28:39;23.10;45.20
53695;DHT22;39588;51.124;7.190;2023-06-14T16:31:11;23.20;45.40
53695;DHT22;39588;51.124;7.190;2023-06-14T16:33:40;23.30;45.20
53695;DHT22;39588;51.124;7.190;2023-06-14T16:36:05;23.40;45.10
53695;DHT22;39588;51.124;7.190;2023-06-14T16:40:59;24.00;45.30
53695;DHT22;39588;51.124;7.190;2023-06-14T16:43:25;24.30;45.40
53695;DHT22;39588;51.124;7.190;2023-06-14T16:45:50;24.40;45.70
53695;DHT22;39588;51.124;7.190;2023-06-14T16:48:16;24.60;46.20
53695;DHT22;39588;51.124;7.190;2023-06-14T16:50:42;24.50;45.50
53695;DHT22;39588;51.124;7.190;2023-06-14T16:53:07;24.30;45.10
53695;DHT22;39588;51.124;7.190;2023-06-14T16:55:33;24.10;45.70
53695;DHT22;39588;51.124;7.190;2023-06-14T16:58:00;24.10;45.40
53695;DHT22;39588;51.124;7.190;2023-06-14T17:00:26;23.80;45.50
53695;DHT22;39588;51.124;7.190;2023-06-14T17:02:55;23.50;45.40
53695;DHT22;39588;51.124;7.190;2023-06-14T17:05:21;23.50;45.80
53695;DHT22;39588;51.124;7.190;2023-06-14T17:07:47;23.50;45.80
53695;DHT22;39588;51.124;7.190;2023-06-14T17:12:39;23.40;45.70
53695;DHT22;39588;51.124;7.190;2023-06-14T17:15:06;23.50;46.30
53695;DHT22;39588;51.124;7.190;2023-06-14T17:19:58;23.60;46.00
53695;DHT22;39588;51.124;7.190;2023-06-14T17:22:24;23.50;45.80
53695;DHT22;39588;51.124;7.190;2023-06-14T17:24:50;23.60;46.00
53695;DHT22;39588;51.124;7.190;2023-06-14T17:27:15;23.60;45.50
53695;DHT22;39588;51.124;7.190;2023-06-14T17:29:41;23.60;45.30
53695;DHT22;39588;51.124;7.190;2023-06-14T17:32:08;23.60;45.20
53695;DHT22;39588;51.124;7.190;2023-06-14T17:34:34;23.50;45.50
53695;DHT22;39588;51.124;7.190;2023-06-14T17:36:59;23.50;44.80
53695;DHT22;39588;51.124;7.190;2023-06-14T17:39:25;23.40;44.30
53695;DHT22;39588;51.124;7.190;2023-06-14T17:49:10;23.30;45.70
53695;DHT22;39588;51.124;7.190;2023-06-14T17:51:36;23.30;46.00
53695;DHT22;39588;51.124;7.190;2023-06-14T18:01:21;22.90;45.10
53695;DHT22;39588;51.124;7.190;2023-06-14T18:03:47;22.90;45.40
53695;DHT22;39588;51.124;7.190;2023-06-14T18:06:13;22.80;45.30
53695;DHT22;39588;51.124;7.190;2023-06-14T18:11:04;22.60;45.70
53695;DHT22;39588;51.124;7.190;2023-06-14T18:15:57;22.50;45.70
53695;DHT22;39588;51.124;7.190;2023-06-14T18:25:41;22.50;46.30
53695;DHT22;39588;51.124;7.190;2023-06-14T18:28:07;22.50;46.50
53695;DHT22;39588;51.124;7.190;2023-06-14T18:30:33;22.40;46.70
53695;DHT22;39588;51.124;7.190;2023-06-14T18:37:51;22.10;47.20
53695;DHT22;39588;51.124;7.190;2023-06-14T18:52:27;21.70;49.20
53695;DHT22;39588;51.124;7.190;2023-06-14T18:59:46;21.50;49.60
53695;DHT22;39588;51.124;7.190;2023-06-14T19:02:12;21.50;49.80
53695;DHT22;39588;51.124;7.190;2023-06-14T19:09:31;21.40;50.30
53695;DHT22;39588;51.124;7.190;2023-06-14T19:11:56;21.40;50.60
53695;DHT22;39588;51.124;7.190;2023-06-14T19:14:22;21.30;50.50
53695;DHT22;39588;51.124;7.190;2023-06-14T19:19:15;21.30;51.00
53695;DHT22;39588;51.124;7.190;2023-06-14T19:21:41;21.20;50.90
53695;DHT22;39588;51.124;7.190;2023-06-14T19:26:32;21.10;51.20
53695;DHT22;39588;51.124;7.190;2023-06-14T19:31:25;20.80;51.30
53695;DHT22;39588;51.124;7.190;2023-06-14T19:36:20;20.70;51.70
53695;DHT22;39588;51.124;7.190;2023-06-14T19:38:46;20.60;51.90
53695;DHT22;39588;51.124;7.190;2023-06-14T19:41:14;20.50;51.90
53695;DHT22;39588;51.124;7.190;2023-06-14T19:43:40;20.50;52.20
53695;DHT22;39588;51.124;7.190;2023-06-14T19:53:23;20.20;52.50
53695;DHT22;39588;51.124;7.190;2023-06-14T20:08:00;19.90;52.80
53695;DHT22;39588;51.124;7.190;2023-06-14T20:10:25;19.80;52.80
53695;DHT22;39588;51.124;7.190;2023-06-14T20:15:17;19.70;52.90
53695;DHT22;39588;51.124;7.190;2023-06-14T20:20:09;19.70;53.10
53695;DHT22;39588;51.124;7.190;2023-06-14T20:22:34;19.60;53.10
53695;DHT22;39588;51.124;7.190;2023-06-14T20:25:05;19.60;53.30
53695;DHT22;39588;51.124;7.190;2023-06-14T20:27:31;19.50;53.40
53695;DHT22;39588;51.124;7.190;2023-06-14T20:34:53;19.40;53.70
53695;DHT22;39588;51.124;7.190;2023-06-14T20:44:38;19.30;54.10
53695;DHT22;39588;51.124;7.190;2023-06-14T20:47:06;19.20;54.20
53695;DHT22;39588;51.124;7.190;2023-06-14T20:49:32;19.20;54.30
53695;DHT22;39588;51.124;7.190;2023-06-14T20:54:25;19.10;54.50
53695;DHT22;39588;51.124;7.190;2023-06-14T21:04:09;19.00;54.90
53695;DHT22;39588;51.124;7.190;2023-06-14T21:23:39;18.80;55.50
53695;DHT22;39588;51.124;7.190;2023-06-14T21:28:31;18.70;55.70
53695;DHT22;39588;51.124;7.190;2023-06-14T21:30:56;18.70;55.70
53695;DHT22;39588;51.124;7.190;2023-06-14T21:48:01;18.50;56.30
53695;DHT22;39588;51.124;7.190;2023-06-14T21:57:49;18.40;56.60
53695;DHT22;39588;51.124;7.190;2023-06-14T22:00:15;18.40;56.70
53695;DHT22;39588;51.124;7.190;2023-06-14T22:02:40;18.40;56.80
53695;DHT22;39588;51.124;7.190;2023-06-14T22:07:32;18.30;56.90
53695;DHT22;39588;51.124;7.190;2023-06-14T22:09:58;18.30;57.10
53695;DHT22;39588;51.124;7.190;2023-06-14T22:12:24;18.20;57.10
53695;DHT22;39588;51.124;7.190;2023-06-14T22:14:51;18.20;57.20
53695;DHT22;39588;51.124;7.190;2023-06-14T22:19:47;18.10;57.40
53695;DHT22;39588;51.124;7.190;2023-06-14T22:22:16;18.10;57.60
53695;DHT22;39588;51.124;7.190;2023-06-14T22:29:39;18.00;57.80
53695;DHT22;39588;51.124;7.190;2023-06-14T22:32:08;18.00;57.90
53695;DHT22;39588;51.124;7.190;2023-06-14T22:34:34;18.00;58.00
53695;DHT22;39588;51.124;7.190;2023-06-14T22:39:30;18.00;58.20
53695;DHT22;39588;51.124;7.190;2023-06-14T22:41:56;17.90;58.20
53695;DHT22;39588;51.124;7.190;2023-06-14T22:44:22;17.90;58.30
53695;DHT22;39588;51.124;7.190;2023-06-14T22:49:15;17.80;58.40
53695;DHT22;39588;51.124;7.190;2023-06-14T22:51:42;17.80;58.60
53695;DHT22;39588;51.124;7.190;2023-06-14T22:54:09;17.80;58.70
53695;DHT22;39588;51.124;7.190;2023-06-14T22:56:35;17.70;58.70
53695;DHT22;39588;51.124;7.190;2023-06-14T22:59:00;17.70;58.80
53695;DHT22;39588;51.124;7.190;2023-06-14T23:01:28;17.60;58.90
53695;DHT22;39588;51.124;7.190;2023-06-14T23:03:54;17.70;59.00
53695;DHT22;39588;51.124;7.190;2023-06-14T23:06:20;17.60;59.00
53695;DHT22;39588;51.124;7.190;2023-06-14T23:08:51;17.60;59.10
53695;DHT22;39588;51.124;7.190;2023-06-14T23:11:19;17.60;59.20
53695;DHT22;39588;51.124;7.190;2023-06-14T23:13:47;17.60;59.20
53695;DHT22;39588;51.124;7.190;2023-06-14T23:16:22;17.50;59.20
53695;DHT22;39588;51.124;7.190;2023-06-14T23:18:48;17.60;59.40
53695;DHT22;39588;51.124;7.190;2023-06-14T23:21:15;17.50;59.50
53695;DHT22;39588;51.124;7.190;2023-06-14T23:23:45;17.50;59.50
53695;DHT22;39588;51.124;7.190;2023-06-14T23:26:15;17.50;59.50
53695;DHT22;39588;51.124;7.190;2023-06-14T23:28:41;17.50;59.60
53695;DHT22;39588;51.124;7.190;2023-06-14T23:31:08;17.40;59.60
53695;DHT22;39588;51.124;7.190;2023-06-14T23:33:35;17.40;59.70
53695;DHT22;39588;51.124;7.190;2023-06-14T23:36:01;17.40;59.70
53695;DHT22;39588;51.124;7.190;2023-06-14T23:38:29;17.40;59.80
53695;DHT22;39588;51.124;7.190;2023-06-14T23:41:00;17.30;59.80
53695;DHT22;39588;51.124;7.190;2023-06-14T23:43:29;17.30;60.00
53695;DHT22;39588;51.124;7.190;2023-06-14T23:45:55;17.30;60.10
53695;DHT22;39588;51.124;7.190;2023-06-14T23:48:23;17.30;60.10
53695;DHT22;39588;51.124;7.190;2023-06-14T23:50:55;17.20;60.10
53695;DHT22;39588;51.124;7.190;2023-06-14T23:53:21;17.20;60.20
53695;DHT22;39588;51.124;7.190;2023-06-14T23:55:50;17.10;60.20
53695;DHT22;39588;51.124;7.190;2023-06-14T23:58:21;17.10;60.20
